createdAt,value
2022-10-13T00:03:41.980Z,75.69
2022-10-13T00:07:43.620Z,75.27
2022-10-13T00:11:45.365Z,75.67
2022-10-13T00:15:48.087Z,76.08
2022-10-13T00:19:49.646Z,76.07
2022-10-13T00:23:53.165Z,76.07
2022-10-13T00:27:54.641Z,76.36
2022-10-13T00:31:59.144Z,76.74
2022-10-13T00:36:00.939Z,77.66
2022-10-13T00:40:04.185Z,76.51
2022-10-13T00:44:27.769Z,76.74
2022-10-13T00:48:31.011Z,76.90
2022-10-13T00:52:33.524Z,77.54
2022-10-13T00:56:37.352Z,77.33
2022-10-13T01:00:38.902Z,76.85
2022-10-13T01:04:44.126Z,76.91
2022-10-13T01:08:45.841Z,78.03
2022-10-13T01:12:59.521Z,77.52
2022-10-13T01:17:01.191Z,76.85
2022-10-13T01:21:25.728Z,77.06
2022-10-13T01:25:30.510Z,76.03
2022-10-13T01:29:50.910Z,75.98
2022-10-13T01:33:57.499Z,75.73
2022-10-13T01:38:09.364Z,75.90
2022-10-13T01:42:17.419Z,75.97
2022-10-13T01:46:24.776Z,75.34
2022-10-13T01:50:26.620Z,75.22
2022-10-13T01:54:28.126Z,74.86
2022-10-13T01:58:33.943Z,74.49
2022-10-13T02:03:05.805Z,74.43
2022-10-13T02:07:22.098Z,75.46
2022-10-13T02:11:25.092Z,75.95
2022-10-13T02:15:38.093Z,75.91
2022-10-13T02:19:43.362Z,75.80
2022-10-13T02:23:45.906Z,76.09
2022-10-13T02:27:47.531Z,75.56
2022-10-13T02:31:49.009Z,75.97
2022-10-13T02:35:50.643Z,76.17
2022-10-13T02:39:52.570Z,75.77
2022-10-13T02:43:54.398Z,75.84
2022-10-13T02:48:00.734Z,75.99
2022-10-13T02:52:02.210Z,76.07
2022-10-13T02:56:03.947Z,75.85
2022-10-13T03:00:07.290Z,75.45
2022-10-13T03:04:09.865Z,75.35
2022-10-13T03:08:11.591Z,75.84
2022-10-13T03:12:14.886Z,76.66
2022-10-13T03:16:16.501Z,76.65
2022-10-13T03:20:18.278Z,76.47
2022-10-13T03:24:19.832Z,76.71
2022-10-13T03:28:21.700Z,76.81
2022-10-13T03:32:25.856Z,76.65
2022-10-13T03:36:27.534Z,77.17
2022-10-13T03:40:29.095Z,76.84
2022-10-13T03:44:30.615Z,77.21
2022-10-13T03:48:34.341Z,77.48
2022-10-13T03:52:35.941Z,77.50
2022-10-13T03:56:37.483Z,77.24
2022-10-13T04:00:38.963Z,77.20
2022-10-13T04:04:40.558Z,77.27
2022-10-13T04:08:42.185Z,76.74
2022-10-13T04:12:43.799Z,76.18
2022-10-13T04:16:46.784Z,75.69
2022-10-13T04:20:48.323Z,75.83
2022-10-13T04:24:49.999Z,75.89
2022-10-13T04:28:53.774Z,76.08
2022-10-13T04:32:55.427Z,75.83
2022-10-13T04:36:56.922Z,75.31
2022-10-13T04:40:58.581Z,74.93
2022-10-13T04:45:03.741Z,74.76
2022-10-13T04:49:05.431Z,74.88
2022-10-13T04:53:09.109Z,75.56
2022-10-13T04:57:10.590Z,75.22
2022-10-13T05:01:21.785Z,75.43
2022-10-13T05:05:23.970Z,75.71
2022-10-13T05:09:25.633Z,75.57
2022-10-13T05:13:29.722Z,75.71
2022-10-13T05:17:35.506Z,75.71
2022-10-13T05:21:42.821Z,75.49
2022-10-13T05:25:44.602Z,75.70
2022-10-13T05:29:48.384Z,75.98
2022-10-13T05:33:51.743Z,75.25
2022-10-13T05:37:57.632Z,75.30
2022-10-13T05:41:59.369Z,74.66
2022-10-13T05:46:01.518Z,75.33
2022-10-13T05:50:04.620Z,74.80
2022-10-13T05:54:26.488Z,74.77
2022-10-13T05:58:28.144Z,74.76
2022-10-13T06:02:36.402Z,74.54
2022-10-13T06:06:48.852Z,73.98
2022-10-13T06:10:50.714Z,73.43
2022-10-13T06:14:55.491Z,72.96
2022-10-13T06:24:43.812Z,73.21
2022-10-13T06:28:49.820Z,74.56
2022-10-13T06:32:55.388Z,74.25
2022-10-13T06:36:58.825Z,74.15
2022-10-13T06:41:01.814Z,74.77
2022-10-13T06:45:31.811Z,73.42
2022-10-13T06:50:01.864Z,73.56
2022-10-13T06:54:03.869Z,73.72
2022-10-13T06:58:07.070Z,71.47
2022-10-13T07:03:11.409Z,70.27
2022-10-13T07:07:13.707Z,67.18
2022-10-13T07:11:18.495Z,67.41
2022-10-13T07:15:26.096Z,67.28
2022-10-13T07:19:37.126Z,64.70
2022-10-13T07:23:39.946Z,63.36
2022-10-13T07:27:44.364Z,62.43
2022-10-13T07:31:51.062Z,62.48
2022-10-13T07:35:52.602Z,61.29
2022-10-13T07:39:55.976Z,60.45
2022-10-13T07:43:58.301Z,60.83
2022-10-13T07:48:50.327Z,59.58
2022-10-13T07:52:51.993Z,56.22
2022-10-13T07:57:27.523Z,52.49
2022-10-13T08:01:29.244Z,51.97
2022-10-13T08:05:53.047Z,49.62
2022-10-13T08:09:54.750Z,47.97
2022-10-13T08:14:00.663Z,49.40
2022-10-13T08:18:02.196Z,48.92
2022-10-13T08:22:53.500Z,48.17
2022-10-13T08:27:00.157Z,49.02
2022-10-13T08:31:02.178Z,46.52
2022-10-13T08:35:04.386Z,45.02
2022-10-13T08:39:06.571Z,42.65
2022-10-13T08:43:24.436Z,41.29
2022-10-13T08:47:34.739Z,39.77
2022-10-13T08:56:24.397Z,38.23
2022-10-13T09:00:26.431Z,35.48
2022-10-13T09:04:37.775Z,34.57
2022-10-13T09:09:05.197Z,33.22
2022-10-13T09:13:09.243Z,32.69
2022-10-13T09:17:29.166Z,32.76
2022-10-13T09:21:31.004Z,32.22
2022-10-13T09:25:42.362Z,32.01
2022-10-13T09:29:44.858Z,31.63
2022-10-13T09:33:58.423Z,30.20
2022-10-13T09:38:19.986Z,28.36
2022-10-13T09:42:24.961Z,28.07
2022-10-13T09:47:04.251Z,28.85
2022-10-13T09:51:55.477Z,28.32
2022-10-13T09:56:35.736Z,26.28
2022-10-13T10:00:38.109Z,25.19
2022-10-13T10:04:43.203Z,23.92
2022-10-13T10:09:03.107Z,24.15
2022-10-13T10:13:05.866Z,28.93
2022-10-13T10:17:19.690Z,26.85
2022-10-13T10:21:53.336Z,27.14
2022-10-13T10:26:32.927Z,28.96
2022-10-13T10:31:24.648Z,28.28
2022-10-13T10:35:49.334Z,28.03
2022-10-13T10:40:02.697Z,30.15
2022-10-13T10:44:22.852Z,30.72
2022-10-13T10:48:34.858Z,31.78
2022-10-13T10:52:56.300Z,32.90
2022-10-13T10:57:29.095Z,33.79
2022-10-13T11:01:33.275Z,35.74
2022-10-13T11:05:57.585Z,35.47
2022-10-13T11:09:59.260Z,33.87
2022-10-13T11:14:07.621Z,33.34
2022-10-13T11:18:46.841Z,32.83
2022-10-13T11:22:57.588Z,30.00
2022-10-13T11:27:27.493Z,25.76
2022-10-13T11:31:35.137Z,24.68
2022-10-13T11:35:37.848Z,22.18
2022-10-13T11:40:09.356Z,19.59
2022-10-13T11:44:49.755Z,19.99
2022-10-13T11:49:15.570Z,22.81
2022-10-13T11:53:21.357Z,23.71
2022-10-13T11:57:27.168Z,23.94
2022-10-13T12:01:28.719Z,23.52
2022-10-13T12:05:31.961Z,22.70
2022-10-13T12:09:39.284Z,22.34
2022-10-13T12:13:46.711Z,22.00
2022-10-13T12:17:50.022Z,23.02
2022-10-13T12:21:54.555Z,26.40
2022-10-13T12:25:59.950Z,29.89
2022-10-13T12:30:02.696Z,33.69
2022-10-13T12:34:04.627Z,33.04
2022-10-13T12:38:18.832Z,34.20
2022-10-13T12:42:30.873Z,34.32
2022-10-13T12:46:43.603Z,36.17
2022-10-13T12:50:45.381Z,36.11
2022-10-13T12:54:53.638Z,36.32
2022-10-13T12:58:56.467Z,35.47
2022-10-13T13:03:03.969Z,34.81
2022-10-13T13:07:30.574Z,34.71
2022-10-13T13:11:39.357Z,35.30
2022-10-13T13:15:43.959Z,36.57
2022-10-13T13:19:48.087Z,38.53
2022-10-13T13:23:53.682Z,39.03
2022-10-13T13:27:55.816Z,39.04
2022-10-13T13:31:57.714Z,40.30
2022-10-13T13:35:59.463Z,41.29
2022-10-13T13:40:01.554Z,41.52
2022-10-13T13:44:37.084Z,42.26
2022-10-13T13:48:39.563Z,42.22
2022-10-13T13:52:41.753Z,42.16
2022-10-13T13:57:35.441Z,43.64
2022-10-13T14:02:03.679Z,43.81
2022-10-13T14:06:07.664Z,44.37
2022-10-13T14:11:02.533Z,44.53
2022-10-13T14:15:05.276Z,45.11
2022-10-13T14:19:41.963Z,44.28
2022-10-13T14:35:21.560Z,42.13
2022-10-13T14:39:23.009Z,44.32
2022-10-13T14:44:17.690Z,44.90
2022-10-13T14:48:24.563Z,46.11
2022-10-13T14:52:26.662Z,47.76
2022-10-13T14:57:19.356Z,47.85
2022-10-13T15:01:29.004Z,48.29
2022-10-13T15:05:31.047Z,48.91
2022-10-13T15:09:45.153Z,50.04
2022-10-13T15:14:25.344Z,49.85
2022-10-13T15:18:43.893Z,49.96
2022-10-13T15:22:48.878Z,50.74
2022-10-13T15:26:50.876Z,51.10
2022-10-13T15:30:52.590Z,51.21
2022-10-13T15:34:58.188Z,51.38
2022-10-13T15:39:25.957Z,51.95
2022-10-13T15:43:28.152Z,52.18
2022-10-13T15:47:32.753Z,52.36
2022-10-13T15:51:35.017Z,52.66
2022-10-13T15:55:41.553Z,53.68
2022-10-13T15:59:43.475Z,54.24
2022-10-13T16:03:45.228Z,54.66
2022-10-13T16:07:50.685Z,55.25
2022-10-13T16:11:54.659Z,55.78
2022-10-13T16:16:46.819Z,55.95
2022-10-13T16:20:48.848Z,57.04
2022-10-13T16:24:52.062Z,58.05
2022-10-13T16:28:54.997Z,58.38
2022-10-13T16:32:57.115Z,58.60
2022-10-13T16:36:59.042Z,58.70
2022-10-13T16:41:09.984Z,59.22
2022-10-13T16:45:11.691Z,60.05
2022-10-13T16:49:13.301Z,60.37
2022-10-13T16:53:14.874Z,61.04
2022-10-13T16:57:16.452Z,61.22
2022-10-13T17:01:18.604Z,61.68
2022-10-13T17:05:20.272Z,61.69
2022-10-13T17:09:21.852Z,62.68
2022-10-13T17:13:23.520Z,63.04
2022-10-13T17:17:25.682Z,63.53
2022-10-13T17:21:27.256Z,64.23
2022-10-13T17:25:29.058Z,64.72
2022-10-13T17:29:30.692Z,64.57
2022-10-13T17:33:45.375Z,64.18
2022-10-13T17:37:55.914Z,66.08
2022-10-13T17:41:59.071Z,66.15
2022-10-13T17:46:36.872Z,66.29
2022-10-13T17:50:41.343Z,66.53
2022-10-13T17:54:50.567Z,66.74
2022-10-13T17:58:59.145Z,67.71
2022-10-13T18:03:00.938Z,66.83
2022-10-13T18:07:06.338Z,66.83
2022-10-13T18:11:10.367Z,67.92
2022-10-13T18:15:12.079Z,68.22
2022-10-13T18:19:13.708Z,68.24
2022-10-13T18:23:15.409Z,68.45
2022-10-13T18:27:17.100Z,68.65
2022-10-13T18:31:27.853Z,68.76
2022-10-13T18:35:32.491Z,68.36
2022-10-13T18:39:34.980Z,67.94
2022-10-13T18:43:36.566Z,68.19
2022-10-13T18:47:38.112Z,68.70
2022-10-13T18:51:41.164Z,69.70
2022-10-13T18:55:51.373Z,68.56
2022-10-13T18:59:53.090Z,68.58
2022-10-13T19:04:03.644Z,67.78
2022-10-13T19:08:09.361Z,67.73
2022-10-13T19:12:11.169Z,68.01
2022-10-13T19:16:14.279Z,67.25
2022-10-13T19:20:16.020Z,67.54
2022-10-13T19:24:20.933Z,67.95
2022-10-13T19:28:22.702Z,68.61
2022-10-13T19:32:28.851Z,69.22
2022-10-13T19:36:39.001Z,69.69
2022-10-13T19:40:47.946Z,69.72
2022-10-13T19:44:50.038Z,69.74
2022-10-13T19:48:51.873Z,69.14
2022-10-13T19:52:53.550Z,70.24
2022-10-13T19:56:55.150Z,70.24
2022-10-13T20:01:02.641Z,71.14
2022-10-13T20:05:04.728Z,70.93
2022-10-13T20:09:06.699Z,71.56
2022-10-13T20:13:09.917Z,72.32
2022-10-13T20:17:13.757Z,72.69
2022-10-13T20:21:16.986Z,72.84
2022-10-13T20:25:19.931Z,74.01
2022-10-13T20:29:21.511Z,73.56
2022-10-13T20:33:23.161Z,73.91
2022-10-13T20:37:24.932Z,73.81
2022-10-13T20:41:29.634Z,73.86
2022-10-13T20:45:31.318Z,74.15
2022-10-13T20:49:33.092Z,74.27
2022-10-13T20:53:37.348Z,74.64
2022-10-13T20:57:38.978Z,75.25
2022-10-13T21:01:40.784Z,74.94
2022-10-13T21:05:42.427Z,74.90
2022-10-13T21:09:44.240Z,74.66
2022-10-13T21:13:47.021Z,74.49
2022-10-13T21:17:49.353Z,74.56
2022-10-13T21:21:50.951Z,74.54
2022-10-13T21:25:52.569Z,74.96
2022-10-13T21:29:54.274Z,74.94
2022-10-13T21:33:56.743Z,75.43
2022-10-13T21:37:58.338Z,75.56
2022-10-13T21:42:00.025Z,75.80
2022-10-13T21:46:19.736Z,76.94
2022-10-13T21:50:28.326Z,76.33
2022-10-13T21:54:29.935Z,76.92
2022-10-13T21:58:31.766Z,76.99
2022-10-13T22:02:33.316Z,77.30
2022-10-13T22:06:35.070Z,77.22
2022-10-13T22:10:36.748Z,77.14
2022-10-13T22:14:38.592Z,76.66
2022-10-13T22:18:41.020Z,76.87
2022-10-13T22:22:42.782Z,76.41
2022-10-13T22:26:46.260Z,76.70
2022-10-13T22:31:14.099Z,76.99
2022-10-13T22:35:24.948Z,76.75
2022-10-13T22:39:27.513Z,76.69
2022-10-13T22:43:34.553Z,76.74
2022-10-13T22:47:48.906Z,76.63
2022-10-13T22:57:43.758Z,77.41
2022-10-13T23:01:45.502Z,77.06
2022-10-13T23:05:48.868Z,76.47
2022-10-13T23:09:51.567Z,76.69
2022-10-13T23:13:53.612Z,77.86
2022-10-13T23:17:55.374Z,78.30
2022-10-13T23:21:57.135Z,78.44
2022-10-13T23:26:06.873Z,78.56
2022-10-13T23:30:09.077Z,78.66
2022-10-13T23:34:10.602Z,78.88
2022-10-13T23:38:12.191Z,79.17
2022-10-13T23:42:14.038Z,79.99
2022-10-13T23:46:15.529Z,79.72
2022-10-13T23:50:17.261Z,80.21
2022-10-13T23:54:18.763Z,80.26
2022-10-13T23:58:20.402Z,80.59
